Time;durP1;ratioP1;P1;durP2;ratioP2;P2;SDS_P1;SDS_P2;PMS_P1;PMS_P2;Temp;Humidity;BMP_temperature;BMP_pressure;BME280_temperature;BME280_humidity;BME280_pressure;Samples;Min_cycle;Max_cycle;Signal;HPM_P1;HPM_P2
2024/05/07 00:00:31;;;;;;;3.88;1.30;;;16.00;1.00;;;;;;5123104;27;20061;-94
2024/05/07 00:03:11;;;;;;;2.95;1.10;;;16.00;1.00;;;;;;5125608;27;20060;-93
2024/05/07 00:05:41;;;;;;;4.07;1.00;;;16.00;1.00;;;;;;5151151;27;20079;-94
2024/05/07 00:08:10;;;;;;;2.80;1.00;;;16.00;1.00;;;;;;5188352;27;20072;-94
2024/05/07 00:10:38;;;;;;;1.90;1.10;;;16.00;1.00;;;;;;5160295;27;20106;-93
2024/05/07 00:13:08;;;;;;;4.20;1.10;;;16.00;1.00;;;;;;5189653;27;20074;-93
2024/05/07 00:15:37;;;;;;;4.38;1.20;;;15.90;1.00;;;;;;5189288;27;20059;-93
2024/05/07 00:18:06;;;;;;;3.42;1.17;;;15.90;1.00;;;;;;5162211;27;20067;-94
2024/05/07 00:20:34;;;;;;;2.97;1.17;;;16.00;1.00;;;;;;5187678;27;20064;-93
2024/05/07 00:23:07;;;;;;;6.75;1.27;;;16.00;1.00;;;;;;5161660;27;20059;-94
2024/05/07 00:25:39;;;;;;;3.25;1.02;;;16.00;1.00;;;;;;5160895;27;20096;-94
2024/05/07 00:28:10;;;;;;;3.00;1.23;;;15.90;1.00;;;;;;5187309;27;20146;-93
2024/05/07 00:30:38;;;;;;;3.45;1.10;;;15.90;1.00;;;;;;5160040;27;20096;-93
2024/05/07 00:33:09;;;;;;;4.65;1.30;;;15.80;1.00;;;;;;5187759;27;20125;-93
2024/05/07 00:35:41;;;;;;;3.40;1.15;;;15.80;1.00;;;;;;5160680;27;20059;-93
2024/05/07 00:38:10;;;;;;;3.03;1.17;;;15.80;1.00;;;;;;5160571;27;20082;-93
2024/05/07 00:40:45;;;;;;;4.47;1.52;;;15.70;1.00;;;;;;5187151;27;20086;-93
2024/05/07 00:43:13;;;;;;;3.50;1.40;;;15.80;1.00;;;;;;5187265;27;20063;-93
2024/05/07 00:45:41;;;;;;;6.63;1.65;;;15.70;1.00;;;;;;5160775;27;20063;-93
2024/05/07 00:48:09;;;;;;;3.47;1.13;;;15.80;1.00;;;;;;5186693;27;20086;-93
2024/05/07 00:50:42;;;;;;;4.13;1.45;;;15.80;1.00;;;;;;5159603;27;20415;-93
2024/05/07 00:53:09;;;;;;;5.72;1.05;;;15.80;1.00;;;;;;5214157;27;20083;-93
2024/05/07 00:55:38;;;;;;;4.43;1.15;;;15.80;1.00;;;;;;5187590;27;20516;-93
2024/05/07 00:58:06;;;;;;;5.30;1.50;;;15.80;1.00;;;;;;5187257;27;20497;-93
2024/05/07 01:00:34;;;;;;;2.53;1.00;;;15.70;1.00;;;;;;5160743;27;20486;-93
2024/05/07 01:03:15;;;;;;;3.95;1.17;;;15.70;5.40;;;;;;5162072;27;20067;-93
2024/05/07 01:05:44;;;;;;;3.92;1.30;;;15.70;1.00;;;;;;5165531;27;20079;-93
2024/05/07 01:08:15;;;;;;;4.20;1.27;;;15.80;1.00;;;;;;5155271;27;20079;-93
2024/05/07 01:10:43;;;;;;;2.45;1.20;;;15.80;1.00;;;;;;5128589;27;20087;-93
2024/05/07 01:13:21;;;;;;;2.58;1.05;;;15.80;1.00;;;;;;5128286;27;20507;-94
2024/05/07 01:15:49;;;;;;;4.72;1.20;;;15.80;1.00;;;;;;5128404;27;20078;-93
2024/05/07 01:18:16;;;;;;;3.95;1.23;;;15.80;1.00;;;;;;5127730;27;20056;-93
2024/05/07 01:20:45;;;;;;;3.67;1.00;;;15.80;1.00;;;;;;5136541;27;20076;-93
2024/05/07 01:23:12;;;;;;;5.75;1.75;;;15.90;1.00;;;;;;5141007;27;20065;-93
2024/05/07 01:25:47;;;;;;;5.55;1.30;;;15.90;1.00;;;;;;5169557;27;20089;-93
2024/05/07 01:28:17;;;;;;;2.65;1.05;;;15.90;1.00;;;;;;5142459;27;20123;-93
2024/05/07 01:30:46;;;;;;;5.05;1.30;;;15.90;1.00;;;;;;5162502;27;20067;-93
2024/05/07 01:33:13;;;;;;;2.85;1.10;;;15.90;1.00;;;;;;5160195;27;20150;-93
2024/05/07 01:35:40;;;;;;;4.53;1.25;;;15.90;1.00;;;;;;5186846;27;20095;-93
2024/05/07 01:38:07;;;;;;;3.60;1.23;;;15.90;1.00;;;;;;5159745;27;20063;-93
2024/05/07 01:40:40;;;;;;;4.68;1.13;;;15.90;1.00;;;;;;5188380;27;20082;-93
2024/05/07 01:43:08;;;;;;;4.47;1.27;;;15.90;1.00;;;;;;5160372;27;20068;-93
2024/05/07 01:45:37;;;;;;;3.65;1.50;;;15.90;1.00;;;;;;5187153;27;20063;-92
2024/05/07 01:48:09;;;;;;;6.85;1.40;;;16.00;1.00;;;;;;5159750;27;20143;-93
2024/05/07 01:50:38;;;;;;;;;;;16.00;1.00;;;;;;5159735;27;20094;-94
2024/05/07 01:53:08;;;;;;;3.17;1.10;;;15.90;1.00;;;;;;5155286;27;20418;-94
2024/05/07 01:55:39;;;;;;;3.95;1.50;;;15.90;1.00;;;;;;5154701;27;20126;-93
2024/05/07 01:58:07;;;;;;;4.22;1.35;;;15.90;1.00;;;;;;5128095;27;20075;-93
2024/05/07 02:00:34;;;;;;;2.30;1.20;;;15.90;1.00;;;;;;5153095;27;20060;-93
2024/05/07 02:03:12;;;;;;;4.13;1.20;;;16.00;1.00;;;;;;5154612;27;20095;-93
2024/05/07 02:05:42;;;;;;;3.03;1.15;;;16.00;1.00;;;;;;5154229;27;20055;-93
2024/05/07 02:08:10;;;;;;;4.68;1.25;;;16.00;1.00;;;;;;5153427;27;20064;-93
2024/05/07 02:10:39;;;;;;;4.00;1.38;;;16.00;1.00;;;;;;5153824;27;20083;-93
2024/05/07 02:13:06;;;;;;;4.22;1.10;;;16.00;1.00;;;;;;5126892;27;20129;-93
2024/05/07 02:15:34;;;;;;;3.40;1.40;;;15.90;1.00;;;;;;5127670;27;20060;-93
2024/05/07 02:18:02;;;;;;;3.53;1.13;;;15.90;1.00;;;;;;5126636;27;20068;-93
2024/05/07 02:20:32;;;;;;;3.33;1.20;;;15.90;1.00;;;;;;5128343;27;20144;-93
2024/05/07 02:23:07;;;;;;;4.28;1.13;;;15.90;1.00;;;;;;5153924;27;20059;-93
2024/05/07 02:25:35;;;;;;;2.55;0.95;;;15.90;1.00;;;;;;5128128;27;20060;-93
2024/05/07 02:28:05;;;;;;;3.40;1.00;;;15.90;1.00;;;;;;5154184;27;20061;-93
2024/05/07 02:30:34;;;;;;;4.15;1.20;;;15.90;1.00;;;;;;5171641;27;20076;-93
2024/05/07 02:33:11;;;;;;;2.78;1.20;;;15.90;1.00;;;;;;5160282;27;20083;-93
2024/05/07 02:35:39;;;;;;;3.15;1.20;;;15.90;1.00;;;;;;5186274;27;20067;-93
2024/05/07 02:38:08;;;;;;;5.57;1.40;;;15.90;1.00;;;;;;5158525;27;20082;-93
2024/05/07 02:40:35;;;;;;;4.25;1.13;;;15.90;1.00;;;;;;5185304;27;20068;-93
2024/05/07 02:43:08;;;;;;;4.25;1.35;;;15.90;1.00;;;;;;5160075;27;20083;-93
2024/05/07 02:45:38;;;;;;;4.35;1.33;;;15.80;1.00;;;;;;5185929;27;20086;-94
2024/05/07 02:48:06;;;;;;;3.60;1.10;;;15.80;1.00;;;;;;5159394;27;20051;-93
2024/05/07 02:50:35;;;;;;;3.53;1.45;;;15.80;1.00;;;;;;5186505;27;20074;-93
2024/05/07 02:53:10;;;;;;;4.32;1.15;;;15.70;7.10;;;;;;5186089;27;20139;-93
2024/05/07 02:55:39;;;;;;;4.55;1.30;;;15.70;14.50;;;;;;5185635;27;20059;-93
2024/05/07 02:58:07;;;;;;;2.10;1.30;;;15.70;29.70;;;;;;5159490;27;20218;-93
2024/05/07 03:00:34;;;;;;;3.05;1.20;;;15.70;43.60;;;;;;5158831;27;20060;-92
2024/05/07 03:03:06;;;;;;;2.38;1.05;;;15.70;99.90;;;;;;5160124;27;20067;-93
2024/05/07 03:05:40;;;;;;;3.22;1.20;;;15.60;99.90;;;;;;5159609;27;20059;-93
2024/05/07 03:08:08;;;;;;;4.10;1.40;;;15.60;99.90;;;;;;5185510;27;20397;-93
2024/05/07 03:10:36;;;;;;;5.30;1.50;;;15.50;99.90;;;;;;5158060;27;20078;-93
2024/05/07 03:13:09;;;;;;;4.80;1.65;;;15.50;99.90;;;;;;5186494;27;20061;-93
2024/05/07 03:15:38;;;;;;;5.75;1.80;;;15.40;99.90;;;;;;5162460;27;20055;-93
2024/05/07 03:18:06;;;;;;;6.10;2.00;;;15.40;99.90;;;;;;5188416;27;20082;-92
2024/05/07 03:20:34;;;;;;;7.28;2.50;;;15.30;99.90;;;;;;5150177;27;20065;-92
2024/05/07 03:23:05;;;;;;;;;;;15.40;99.90;;;;;;5124844;27;20093;-92
2024/05/07 03:25:36;;;;;;;5.57;2.30;;;15.30;99.90;;;;;;5124196;27;20012;-93
2024/05/07 03:28:06;;;;;;;5.13;2.50;;;15.30;99.90;;;;;;5124197;27;20069;-93
2024/05/07 03:30:34;;;;;;;7.45;2.15;;;15.30;99.90;;;;;;5152463;27;20065;-93
2024/05/07 03:33:09;;;;;;;5.55;2.22;;;15.20;99.90;;;;;;5099446;27;20560;-93
2024/05/07 03:35:47;;;;;;;5.85;2.58;;;15.10;99.90;;;;;;5150594;27;20056;-93
2024/05/07 03:38:15;;;;;;;9.52;2.53;;;15.10;99.90;;;;;;5123396;27;20083;-93
2024/05/07 03:40:43;;;;;;;4.10;2.60;;;15.20;99.90;;;;;;5122503;27;20085;-92
2024/05/07 03:43:10;;;;;;;7.95;3.00;;;15.20;99.90;;;;;;5122994;27;20117;-92
2024/05/07 03:45:37;;;;;;;7.10;2.83;;;15.10;99.90;;;;;;5123059;27;20061;-92
2024/05/07 03:48:04;;;;;;;7.15;2.75;;;15.10;99.90;;;;;;5122811;27;20152;-92
2024/05/07 03:50:32;;;;;;;6.10;3.28;;;15.20;99.90;;;;;;5122817;27;20061;-92
2024/05/07 03:53:06;;;;;;;6.20;3.17;;;15.20;99.90;;;;;;5123749;27;20079;-92
2024/05/07 03:55:34;;;;;;;10.52;3.28;;;15.20;99.90;;;;;;5097650;27;20058;-93
2024/05/07 03:58:02;;;;;;;5.53;2.50;;;15.20;99.90;;;;;;5123029;27;20062;-93
2024/05/07 04:00:30;;;;;;;6.30;2.58;;;15.10;99.90;;;;;;5123862;27;20147;-92
2024/05/07 04:03:18;;;;;;;4.82;2.63;;;15.20;99.90;;;;;;5123206;27;20577;-92
2024/05/07 04:05:46;;;;;;;7.63;2.72;;;15.10;99.90;;;;;;5102084;27;20056;-92
2024/05/07 04:08:14;;;;;;;6.90;2.25;;;15.20;99.90;;;;;;5188573;27;20071;-92
2024/05/07 04:10:41;;;;;;;8.55;2.88;;;15.20;99.90;;;;;;5187487;27;20075;-92
2024/05/07 04:13:08;;;;;;;4.53;2.67;;;15.20;99.90;;;;;;5187892;27;20082;-92
2024/05/07 04:15:37;;;;;;;6.03;2.78;;;15.20;99.90;;;;;;5187846;27;20100;-93
2024/05/07 04:18:04;;;;;;;7.45;3.00;;;15.20;99.90;;;;;;5188453;27;20060;-92
2024/05/07 04:20:32;;;;;;;11.18;3.17;;;15.20;99.90;;;;;;5187561;27;20090;-92
2024/05/07 04:23:06;;;;;;;11.32;3.65;;;15.20;99.90;;;;;;5162944;27;20095;-92
2024/05/07 04:25:36;;;;;;;7.53;3.00;;;15.20;99.90;;;;;;5187319;27;20534;-92
2024/05/07 04:28:09;;;;;;;4.75;2.45;;;15.10;99.90;;;;;;5188603;27;20146;-93
2024/05/07 04:30:37;;;;;;;7.47;2.97;;;15.10;99.90;;;;;;5160439;27;20502;-93
2024/05/07 04:33:11;;;;;;;9.75;3.75;;;15.10;99.90;;;;;;5187267;27;20063;-92
2024/05/07 04:35:40;;;;;;;9.55;3.03;;;15.10;99.90;;;;;;5160484;27;20469;-92
2024/05/07 04:38:07;;;;;;;6.68;3.00;;;15.10;99.90;;;;;;5135210;27;20619;-92
2024/05/07 04:40:35;;;;;;;5.95;3.17;;;15.10;99.90;;;;;;5154492;27;20075;-92
2024/05/07 04:43:11;;;;;;;8.93;3.05;;;15.10;99.90;;;;;;5154785;27;20065;-92
2024/05/07 04:45:42;;;;;;;5.15;2.58;;;15.10;1.00;;;;;;5154883;27;20538;-92
2024/05/07 04:48:09;;;;;;;5.40;1.92;;;15.10;1.00;;;;;;5128797;27;20088;-94
2024/05/07 04:50:40;;;;;;;7.15;1.98;;;15.10;1.00;;;;;;5155294;27;20057;-92
2024/05/07 04:53:08;;;;;;;11.68;2.38;;;15.10;1.00;;;;;;5128715;27;20060;-92
2024/05/07 04:55:40;;;;;;;8.18;2.15;;;15.20;1.00;;;;;;5130011;27;20140;-92
2024/05/07 04:58:09;;;;;;;7.90;2.15;;;15.20;1.00;;;;;;5155193;27;20061;-93
2024/05/07 05:00:37;;;;;;;8.25;2.13;;;15.20;1.00;;;;;;5128733;27;20056;-92
2024/05/07 05:03:06;;;;;;;5.30;1.90;;;15.20;1.00;;;;;;5155811;27;20056;-92
2024/05/07 05:05:37;;;;;;;6.90;1.88;;;15.10;1.00;;;;;;5156263;27;20072;-93
2024/05/07 05:08:32;;;;;;;8.65;2.20;;;15.10;1.00;;;;;;5156052;27;20058;-93
2024/05/07 05:11:05;;;;;;;4.03;1.60;;;15.10;1.00;;;;;;5130581;27;20100;-94
2024/05/07 05:13:39;;;;;;;3.83;1.85;;;15.10;1.00;;;;;;5131735;27;20082;-94
2024/05/07 05:16:29;;;;;;;7.55;1.92;;;15.10;1.00;;;;;;5130885;27;20056;-95
2024/05/07 05:18:56;;;;;;;6.30;1.70;;;15.10;1.00;;;;;;5145185;27;20060;-89
2024/05/07 05:21:24;;;;;;;5.50;2.42;;;15.10;1.00;;;;;;5119497;27;20072;-89
2024/05/07 05:23:51;;;;;;;5.18;2.33;;;15.10;1.00;;;;;;5094114;27;20056;-91
2024/05/07 05:26:18;;;;;;;4.85;1.83;;;15.10;1.00;;;;;;5094442;27;20061;-90
2024/05/07 05:28:46;;;;;;;5.07;1.90;;;15.10;1.00;;;;;;5094036;27;20390;-90
2024/05/07 05:31:14;;;;;;;6.55;2.08;;;15.00;1.00;;;;;;5094262;27;20065;-89
2024/05/07 05:33:41;;;;;;;4.07;1.85;;;15.00;1.00;;;;;;5091839;27;20073;-90
2024/05/07 05:36:08;;;;;;;7.93;2.35;;;15.00;1.00;;;;;;5093096;27;20085;-90
2024/05/07 05:38:37;;;;;;;5.45;2.17;;;15.00;1.00;;;;;;5093851;27;20061;-89
2024/05/07 05:41:04;;;;;;;9.77;2.72;;;15.00;1.00;;;;;;5093918;27;20537;-89
2024/05/07 05:43:31;;;;;;;6.57;2.25;;;15.00;1.00;;;;;;5093925;27;20069;-89
2024/05/07 05:45:58;;;;;;;8.25;2.90;;;15.00;1.00;;;;;;5119978;27;20059;-90
2024/05/07 05:48:25;;;;;;;8.00;2.60;;;15.00;1.00;;;;;;5094143;27;20084;-90
2024/05/07 05:50:53;;;;;;;5.45;2.40;;;15.00;1.00;;;;;;5093699;27;20069;-88
2024/05/07 05:53:20;;;;;;;6.45;2.58;;;15.10;1.00;;;;;;5093939;27;20061;-88
2024/05/07 05:55:47;;;;;;;5.97;2.55;;;15.00;1.00;;;;;;5120066;27;20060;-89
2024/05/07 05:58:16;;;;;;;8.48;2.88;;;15.00;1.00;;;;;;5149732;27;20083;-89
2024/05/07 06:00:44;;;;;;;6.43;2.80;;;15.10;1.00;;;;;;5122381;27;20080;-88
2024/05/07 06:03:11;;;;;;;4.88;2.63;;;15.10;1.00;;;;;;5095645;27;20389;-88
2024/05/07 06:05:39;;;;;;;9.05;3.38;;;15.10;1.00;;;;;;5094457;27;20057;-89
2024/05/07 06:08:08;;;;;;;8.48;3.50;;;15.10;1.00;;;;;;5093379;27;20057;-88
2024/05/07 06:10:36;;;;;;;6.85;2.92;;;15.10;1.00;;;;;;5093618;27;20057;-88
2024/05/07 06:13:14;;;;;;;8.25;3.13;;;15.20;1.00;;;;;;5093838;27;20088;-88
2024/05/07 06:15:43;;;;;;;8.57;3.28;;;15.20;1.00;;;;;;5093444;27;20087;-89
2024/05/07 06:18:14;;;;;;;8.65;3.72;;;15.20;1.00;;;;;;5108770;27;20532;-88
2024/05/07 06:20:41;;;;;;;8.50;3.88;;;15.10;1.00;;;;;;5124716;27;20063;-88
2024/05/07 06:23:19;;;;;;;7.05;3.50;;;15.20;1.00;;;;;;5152802;27;20104;-88
2024/05/07 06:25:47;;;;;;;7.68;3.25;;;15.20;1.00;;;;;;5151392;27;20064;-87
2024/05/07 06:28:15;;;;;;;6.75;3.65;;;15.20;1.00;;;;;;5164855;27;20070;-90
2024/05/07 06:30:43;;;;;;;11.32;4.57;;;15.20;1.00;;;;;;5183723;27;20079;-87
2024/05/07 06:33:11;;;;;;;6.97;4.45;;;15.20;1.00;;;;;;5156728;27;20059;-88
2024/05/07 06:35:39;;;;;;;7.82;4.45;;;15.20;1.00;;;;;;5175321;27;20417;-88
2024/05/07 06:38:06;;;;;;;9.27;4.13;;;15.20;1.00;;;;;;5124982;27;20154;-88
2024/05/07 06:40:34;;;;;;;8.88;4.45;;;15.30;1.00;;;;;;5166623;27;20068;-88
2024/05/07 06:43:07;;;;;;;9.80;4.43;;;15.30;1.00;;;;;;5183276;27;20416;-89
2024/05/07 06:45:41;;;;;;;;;;;15.30;1.00;;;;;;5184874;27;20078;-88
2024/05/07 06:48:12;;;;;;;10.57;4.90;;;15.30;1.00;;;;;;5158849;27;20070;-88
2024/05/07 06:50:41;;;;;;;8.55;4.85;;;15.30;1.00;;;;;;5186526;27;20063;-89
2024/05/07 06:53:15;;;;;;;11.50;5.03;;;15.30;1.00;;;;;;5159686;27;20076;-88
2024/05/07 06:55:42;;;;;;;9.98;4.95;;;15.30;1.00;;;;;;5186694;27;20092;-89
2024/05/07 06:58:10;;;;;;;10.00;5.80;;;15.30;1.00;;;;;;5215876;27;20071;-88
2024/05/07 07:00:38;;;;;;;13.63;6.05;;;15.30;1.00;;;;;;5186746;27;20090;-88
2024/05/07 07:03:09;;;;;;;15.15;8.05;;;15.40;1.00;;;;;;5159681;27;20547;-88
2024/05/07 07:05:39;;;;;;;;;;;15.40;1.00;;;;;;5187140;27;20056;-88
2024/05/07 07:08:07;;;;;;;11.70;6.35;;;15.50;1.00;;;;;;5159714;27;19992;-89
2024/05/07 07:10:35;;;;;;;14.35;7.43;;;15.50;1.00;;;;;;5159656;27;20059;-88
2024/05/07 07:13:03;;;;;;;14.38;7.47;;;15.60;1.00;;;;;;5159496;27;20471;-88
2024/05/07 07:15:31;;;;;;;13.25;7.20;;;15.60;1.00;;;;;;5186459;27;20059;-88
2024/05/07 07:18:02;;;;;;;12.80;6.85;;;15.60;1.00;;;;;;5121740;27;20098;-88
2024/05/07 07:20:34;;;;;;;10.35;7.28;;;15.60;1.00;;;;;;5121380;27;20065;-89
2024/05/07 07:23:11;;;;;;;14.75;8.25;;;15.70;1.30;;;;;;5097629;27;20069;-90
2024/05/07 07:25:40;;;;;;;13.55;6.93;;;15.70;1.00;;;;;;5123568;27;20143;-92
2024/05/07 07:28:11;;;;;;;14.13;7.55;;;15.70;9.90;;;;;;5103263;27;20062;-91
2024/05/07 07:30:45;;;;;;;12.20;7.43;;;15.80;10.70;;;;;;5165750;27;20060;-92
2024/05/07 07:33:44;;;;;;;11.05;6.80;;;15.90;8.30;;;;;;5191534;27;20096;-96
2024/05/07 07:36:52;;;;;;;16.42;7.22;;;16.00;1.80;;;;;;5237077;22;20087;-95
2024/05/07 07:45:15;;;;;;;13.05;7.95;;;16.20;1.00;;;;;;5150340;27;20069;-95
2024/05/07 07:47:43;;;;;;;12.88;8.55;;;16.30;1.00;;;;;;5125162;27;20061;-93
2024/05/07 07:50:11;;;;;;;15.20;8.57;;;16.20;1.00;;;;;;5150776;27;20160;-95
2024/05/07 07:52:48;;;;;;;12.63;8.30;;;16.20;1.00;;;;;;5118738;28;20421;-93
2024/05/07 07:55:15;;;;;;;19.98;9.80;;;16.30;1.00;;;;;;5118933;28;20157;-95
2024/05/07 07:57:44;;;;;;;14.98;10.20;;;16.30;1.00;;;;;;5314070;22;20079;-95
2024/05/07 08:00:11;;;;;;;15.85;10.45;;;16.30;1.00;;;;;;5159506;27;20073;-95
2024/05/07 08:03:08;;;;;;;15.38;10.25;;;16.30;1.00;;;;;;5155537;27;20060;-93
2024/05/07 08:05:35;;;;;;;15.00;10.60;;;16.30;1.00;;;;;;5129238;27;20092;-93
2024/05/07 08:08:04;;;;;;;13.95;9.52;;;16.40;1.00;;;;;;5128626;27;20076;-93
2024/05/07 08:10:31;;;;;;;15.05;10.20;;;16.40;1.00;;;;;;5149936;27;20065;-93
2024/05/07 08:13:07;;;;;;;17.80;11.00;;;16.40;1.00;;;;;;5149725;27;20085;-93
2024/05/07 08:15:38;;;;;;;15.07;10.30;;;16.50;1.00;;;;;;5123640;27;20126;-92
2024/05/07 08:18:10;;;;;;;15.70;9.95;;;16.50;1.00;;;;;;5123891;27;20069;-93
2024/05/07 08:20:42;;;;;;;15.25;10.40;;;16.50;1.00;;;;;;5150234;27;20077;-93
2024/05/07 08:23:15;;;;;;;14.65;10.52;;;16.50;1.00;;;;;;5123908;27;20061;-93
2024/05/07 08:25:45;;;;;;;11.93;8.73;;;16.50;1.00;;;;;;5124231;27;20052;-93
2024/05/07 08:28:19;;;;;;;15.10;9.32;;;16.50;1.00;;;;;;5150191;27;20586;-93
2024/05/07 08:30:46;;;;;;;11.80;8.77;;;16.60;1.00;;;;;;5151248;27;20080;-94
2024/05/07 08:33:17;;;;;;;16.77;9.25;;;16.60;1.00;;;;;;5168429;27;20155;-93
2024/05/07 08:35:46;;;;;;;16.90;11.23;;;16.70;1.00;;;;;;5156699;27;20093;-93
2024/05/07 08:38:15;;;;;;;13.95;10.40;;;16.70;1.00;;;;;;5155215;27;20063;-92
2024/05/07 08:40:49;;;;;;;13.38;9.85;;;16.80;1.00;;;;;;5157861;27;20071;-93
2024/05/07 08:43:23;;;;;;;17.20;10.20;;;16.80;1.00;;;;;;5157110;27;20056;-92
2024/05/07 08:45:54;;;;;;;15.85;10.52;;;16.90;1.00;;;;;;5155425;27;20064;-92
2024/05/07 08:48:21;;;;;;;15.85;10.98;;;16.90;1.00;;;;;;5155896;27;20400;-93
2024/05/07 08:50:55;;;;;;;15.68;10.63;;;16.90;1.00;;;;;;5155702;27;20098;-92
2024/05/07 08:53:23;;;;;;;16.40;10.10;;;17.00;1.00;;;;;;5155902;27;20081;-93
2024/05/07 08:55:52;;;;;;;20.50;11.25;;;16.90;1.00;;;;;;5155632;27;20147;-93
2024/05/07 08:58:20;;;;;;;14.75;10.43;;;17.00;1.00;;;;;;5155721;27;20060;-93
2024/05/07 09:00:48;;;;;;;14.23;10.65;;;16.90;1.00;;;;;;5155759;27;20449;-93
2024/05/07 09:03:15;;;;;;;20.20;11.35;;;16.90;1.00;;;;;;5155695;27;20060;-92
2024/05/07 09:05:48;;;;;;;16.17;10.40;;;17.00;1.00;;;;;;5155288;27;20150;-92
2024/05/07 09:08:22;;;;;;;16.40;11.48;;;17.00;1.00;;;;;;5155788;27;20581;-92
2024/05/07 09:10:51;;;;;;;17.48;11.15;;;17.10;1.00;;;;;;5155672;27;20069;-93
2024/05/07 09:13:34;;;;;;;15.65;10.48;;;17.10;1.00;;;;;;5182305;27;20061;-93
2024/05/07 09:16:02;;;;;;;14.50;10.50;;;17.20;1.00;;;;;;5182870;27;20067;-93
2024/05/07 09:18:33;;;;;;;13.90;10.73;;;17.20;1.00;;;;;;5182060;27;20061;-93
2024/05/07 09:21:01;;;;;;;15.43;11.32;;;17.30;1.00;;;;;;5129972;27;20513;-93
2024/05/07 09:23:34;;;;;;;14.40;11.23;;;17.30;1.00;;;;;;5155215;27;20520;-93
2024/05/07 09:26:06;;;;;;;14.93;10.85;;;17.40;1.00;;;;;;5155195;27;20060;-93
2024/05/07 09:28:40;;;;;;;15.82;10.48;;;17.40;1.00;;;;;;5159567;27;20087;-94
2024/05/07 09:31:20;;;;;;;16.52;11.65;;;17.40;1.00;;;;;;5157398;27;20068;-93
2024/05/07 09:33:56;;;;;;;14.68;11.13;;;17.60;1.00;;;;;;5182207;27;20468;-93
2024/05/07 09:36:30;;;;;;;17.42;11.77;;;17.60;1.00;;;;;;5187715;27;20065;-94
2024/05/07 09:39:04;;;;;;;16.35;11.73;;;17.70;1.00;;;;;;5165966;27;20538;-93
2024/05/07 09:41:44;;;;;;;16.13;10.48;;;17.70;1.00;;;;;;5154944;27;20096;-93
2024/05/07 09:44:17;;;;;;;18.55;12.35;;;17.80;1.00;;;;;;5155363;27;20065;-95
2024/05/07 09:46:47;;;;;;;16.80;12.15;;;17.90;1.00;;;;;;5155495;27;20505;-93
2024/05/07 09:49:17;;;;;;;19.08;12.45;;;17.80;99.90;;;;;;5155059;27;20535;-93
2024/05/07 09:51:45;;;;;;;19.30;12.13;;;17.80;1.00;;;;;;5154553;27;20077;-94
2024/05/07 09:54:13;;;;;;;17.25;11.98;;;17.80;1.00;;;;;;5155385;27;20083;-93
2024/05/07 09:56:45;;;;;;;16.55;12.18;;;17.70;1.00;;;;;;5154970;27;20060;-94
2024/05/07 09:59:12;;;;;;;18.80;13.23;;;17.70;1.00;;;;;;5153782;27;20064;-93
2024/05/07 10:01:41;;;;;;;16.05;11.88;;;17.60;1.00;;;;;;5155790;27;20064;-92
2024/05/07 10:04:11;;;;;;;16.92;12.52;;;17.60;1.00;;;;;;5155577;27;20146;-93
2024/05/07 10:06:41;;;;;;;16.33;12.52;;;17.50;1.00;;;;;;5155157;27;20105;-92
2024/05/07 10:09:21;;;;;;;19.55;12.95;;;17.50;1.00;;;;;;5154784;27;20082;-92
2024/05/07 10:11:57;;;;;;;17.65;12.07;;;17.40;1.00;;;;;;5155127;27;20152;-92
2024/05/07 10:14:32;;;;;;;18.95;11.98;;;17.30;1.00;;;;;;5157301;27;20089;-92
2024/05/07 10:17:06;;;;;;;18.08;11.15;;;17.20;1.00;;;;;;5155540;27;20065;-91
2024/05/07 10:19:34;;;;;;;16.73;11.25;;;17.20;1.00;;;;;;5155363;27;20060;-92
2024/05/07 10:22:02;;;;;;;14.48;10.73;;;17.20;1.00;;;;;;5155167;27;20500;-92
2024/05/07 10:24:29;;;;;;;14.80;11.35;;;17.20;1.00;;;;;;5154271;27;20077;-89
2024/05/07 10:27:06;;;;;;;17.05;11.68;;;17.20;1.00;;;;;;5154217;27;20064;-91
2024/05/07 10:29:38;;;;;;;13.68;11.18;;;17.20;1.00;;;;;;5155326;27;20061;-91
2024/05/07 10:32:06;;;;;;;14.68;11.63;;;17.30;1.00;;;;;;5154939;27;20064;-90
2024/05/07 10:34:40;;;;;;;16.40;11.13;;;17.20;1.00;;;;;;5155086;27;20128;-90
2024/05/07 10:37:09;;;;;;;19.13;12.23;;;17.20;1.00;;;;;;5153705;27;20071;-91
2024/05/07 10:39:40;;;;;;;17.30;11.80;;;17.30;1.00;;;;;;5127655;27;20082;-92
2024/05/07 10:42:12;;;;;;;15.90;11.83;;;17.30;1.00;;;;;;5153612;27;20156;-92
2024/05/07 10:44:43;;;;;;;17.10;11.43;;;17.30;1.00;;;;;;5154714;27;20300;-92
2024/05/07 10:47:11;;;;;;;16.00;11.40;;;17.30;1.00;;;;;;5154969;27;20068;-90
2024/05/07 10:49:58;;;;;;;15.60;11.13;;;17.20;1.00;;;;;;5128223;27;20211;-90
2024/05/07 10:52:30;;;;;;;15.88;11.73;;;17.10;1.00;;;;;;5154537;27;20065;-91
2024/05/07 10:54:59;;;;;;;15.48;11.35;;;17.00;1.00;;;;;;5154150;27;20143;-91
2024/05/07 10:57:32;;;;;;;16.00;11.95;;;17.00;1.00;;;;;;5153836;27;20146;-92
2024/05/07 11:00:03;;;;;;;15.20;11.50;;;16.90;1.20;;;;;;5153942;27;20084;-91
2024/05/07 11:02:43;;;;;;;9.50;8.20;;;16.90;1.00;;;;;;5146941;27;20096;-90
2024/05/07 11:05:12;;;;;;;16.02;11.10;;;16.90;11.20;;;;;;5122802;27;20062;-90
2024/05/07 11:07:40;;;;;;;18.55;13.13;;;16.80;4.90;;;;;;5154017;27;20092;-91
2024/05/07 11:10:09;;;;;;;17.08;13.27;;;16.90;12.80;;;;;;5154830;27;20506;-90
2024/05/07 11:12:52;;;;;;;22.85;17.05;;;16.80;29.50;;;;;;5154040;27;20143;-89
2024/05/07 11:15:20;;;;;;;23.95;18.40;;;16.80;25.50;;;;;;5155214;27;20470;-90
2024/05/07 11:17:55;;;;;;;16.92;14.02;;;16.90;31.80;;;;;;5153579;27;20061;-90
2024/05/07 11:20:27;;;;;;;18.08;13.90;;;16.90;31.10;;;;;;5154132;27;20080;-91
2024/05/07 11:23:01;;;;;;;17.90;13.00;;;17.00;33.20;;;;;;5153904;27;20505;-91
2024/05/07 11:25:31;;;;;;;17.55;12.63;;;17.00;27.80;;;;;;5154414;27;20061;-91
2024/05/07 11:27:58;;;;;;;16.25;12.18;;;17.00;26.10;;;;;;5154240;27;20436;-91
2024/05/07 11:30:26;;;;;;;17.83;12.63;;;17.10;32.60;;;;;;5181198;27;20061;-91
2024/05/07 11:33:09;;;;;;;17.95;13.27;;;17.20;59.70;;;;;;5154487;27;20082;-92
2024/05/07 11:35:41;;;;;;;18.58;14.20;;;17.20;27.30;;;;;;5156938;27;20060;-92
2024/05/07 11:38:10;;;;;;;18.33;13.77;;;17.20;36.80;;;;;;5157358;27;20427;-91
2024/05/07 11:40:39;;;;;;;18.42;13.27;;;17.20;44.80;;;;;;5184111;27;20083;-92
2024/05/07 11:43:08;;;;;;;17.30;13.00;;;17.20;18.10;;;;;;5157219;27;20105;-91
2024/05/07 11:45:35;;;;;;;17.00;12.82;;;17.10;21.60;;;;;;5157108;27;20147;-91
2024/05/07 11:48:05;;;;;;;17.77;13.07;;;17.00;27.90;;;;;;5184781;27;20079;-91
2024/05/07 11:50:35;;;;;;;18.38;13.48;;;16.80;46.70;;;;;;5157844;27;20064;-90
2024/05/07 11:53:03;;;;;;;18.05;12.98;;;16.80;55.20;;;;;;5130643;27;20120;-90
2024/05/07 11:55:31;;;;;;;20.30;13.80;;;16.80;67.40;;;;;;5159095;27;20064;-92
2024/05/07 11:57:58;;;;;;;20.90;14.50;;;16.80;88.70;;;;;;5157889;27;20616;-91
2024/05/07 12:00:25;;;;;;;21.00;13.43;;;16.80;84.30;;;;;;5157358;27;20135;-93
2024/05/07 12:02:59;;;;;;;19.52;13.98;;;16.80;84.00;;;;;;5157894;27;20083;-93
2024/05/07 12:05:29;;;;;;;16.83;13.77;;;16.80;80.70;;;;;;5157465;27;20091;-93
2024/05/07 12:07:58;;;;;;;21.08;14.05;;;16.80;69.20;;;;;;5155637;27;20128;-93
2024/05/07 12:10:25;;;;;;;17.85;13.95;;;16.90;78.90;;;;;;5155808;27;20069;-93
2024/05/07 12:13:00;;;;;;;17.83;13.90;;;16.90;64.30;;;;;;5183218;27;20091;-93
2024/05/07 12:15:28;;;;;;;17.00;13.02;;;16.90;77.60;;;;;;5157340;27;20087;-93
2024/05/07 12:17:59;;;;;;;19.02;13.52;;;16.90;74.70;;;;;;5156214;27;20477;-93
2024/05/07 12:20:29;;;;;;;17.15;13.25;;;17.00;57.50;;;;;;5150834;27;20073;-94
2024/05/07 12:26:06;;;;;;;17.42;12.50;;;16.90;41.80;;;;;;5150875;27;20230;-93
2024/05/07 12:28:38;;;;;;;22.13;12.10;;;17.00;50.70;;;;;;5150393;27;20142;-92
2024/05/07 12:31:06;;;;;;;12.93;10.40;;;17.00;66.30;;;;;;5123353;27;20068;-93
2024/05/07 12:33:41;;;;;;;14.75;11.52;;;17.00;66.20;;;;;;5128731;27;20077;-94
2024/05/07 12:36:08;;;;;;;14.40;12.27;;;16.90;34.80;;;;;;5154509;27;20084;-94
2024/05/07 12:38:38;;;;;;;14.60;11.57;;;16.90;38.90;;;;;;5154514;27;20056;-93
2024/05/07 12:41:07;;;;;;;15.02;11.68;;;16.90;54.00;;;;;;5152908;27;20415;-93
2024/05/07 12:43:34;;;;;;;17.63;11.50;;;17.00;48.20;;;;;;5153568;27;20536;-93
2024/05/07 12:46:02;;;;;;;15.43;11.68;;;17.00;19.50;;;;;;5153686;27;20068;-93
2024/05/07 12:48:30;;;;;;;15.75;10.98;;;17.00;42.50;;;;;;5153672;27;20072;-92
2024/05/07 12:51:08;;;;;;;15.75;11.23;;;17.00;34.50;;;;;;5153132;27;20091;-94
2024/05/07 12:53:35;;;;;;;14.68;11.63;;;17.00;31.60;;;;;;5154536;27;20143;-93
2024/05/07 12:56:02;;;;;;;16.42;11.07;;;17.00;34.40;;;;;;5153876;27;20082;-93
2024/05/07 12:58:30;;;;;;;13.45;11.15;;;17.00;31.60;;;;;;5154594;27;20466;-94
2024/05/07 13:00:57;;;;;;;15.23;11.23;;;17.00;55.10;;;;;;5152891;27;20099;-93
2024/05/07 13:03:24;;;;;;;14.13;10.88;;;17.10;46.90;;;;;;5153350;27;20068;-94
2024/05/07 13:05:52;;;;;;;13.68;10.85;;;17.10;34.80;;;;;;5153193;27;20061;-93
2024/05/07 13:08:24;;;;;;;14.80;11.52;;;17.10;46.30;;;;;;5154392;27;20060;-93
2024/05/07 13:10:51;;;;;;;15.68;11.55;;;17.20;15.10;;;;;;5153042;27;20064;-92